Humidity-temperature Sensor

Selected Measurement Type: Air Temperature

 
Air Temperature [°C]     6 entries per hour
Showing data from 4/15/2022 (00:00:00 Z) to 4/14/2022 (00:01:00 Z)
Previous Next [ Day | 3-Days | 7-Days ]
First Last
Prev [ Day | 3-Days | 7-Days ] Next
First Last

Start Time:     :
End Time:     :     
Time (in GMT) :00 :50 :40 :30 :20 :10
Previous Next [ Day | 3-Days | 7-Days ]
First Last
Prev [ Day | 3-Days | 7-Days ] Next
First Last


123 => good data
MM => data is determined as missing
-- => data not received/configured
Back to Top Back to Top
4/15/2022 00:00 to 23:10 28.07 27.92 27.96 27.95 27.94 27.94
4/14/2022 23:00 to 22:10 27.92 28.03 28.20 28.03 27.92 27.92
4/14/2022 22:00 to 21:10 27.85 27.83 27.85 27.80 27.43 27.93
4/14/2022 21:00 to 20:10 27.94 27.72 27.77 27.77 27.85 27.66
4/14/2022 20:00 to 19:10 27.83 27.62 27.51 27.47 27.68 27.64
4/14/2022 19:00 to 18:10 27.84 27.44 27.49 27.39 27.33 27.23
4/14/2022 18:00 to 17:10 27.23 27.09 27.06 27.07 26.88 26.52
4/14/2022 17:00 to 16:10 26.95 26.69 26.55 26.41 26.38 26.67
4/14/2022 16:00 to 15:10 26.58 26.62 26.64 27.31 27.31 27.22
4/14/2022 15:00 to 14:10 27.15 27.41 27.48 27.30 27.42 27.53
4/14/2022 14:00 to 13:10 27.48 27.65 27.45 27.68 27.62 27.40
4/14/2022 13:00 to 12:10 27.41 27.44 27.36 27.53 27.17 27.29
4/14/2022 12:00 to 11:10 27.38 27.26 27.35 27.06 26.97 27.08
4/14/2022 11:00 to 10:10 27.06 27.36 27.27 27.32 27.40 27.21
4/14/2022 10:00 to 9:10 27.17 27.27 27.20 27.21 27.37 27.22
4/14/2022 09:00 to 8:10 27.60 27.59 27.42 27.37 27.28 27.39
4/14/2022 08:00 to 7:10 27.40 27.34 27.46 27.57 27.62 27.61
4/14/2022 07:00 to 6:10 27.59 27.79 27.76 27.82 27.76 27.79
4/14/2022 06:00 to 5:10 27.87 27.61 27.69 27.60 27.59 27.74
4/14/2022 05:00 to 4:10 27.69 27.75 27.69 27.67 27.60 27.73
4/14/2022 04:00 to 3:10 27.68 27.50 27.60 27.55 27.56 27.68
4/14/2022 03:00 to 2:10 27.54 27.42 27.67 27.56 27.49 27.34
4/14/2022 02:00 to 1:10 27.41 27.36 27.54 27.34 27.39 27.29
4/14/2022 01:00 to 0:10 27.24 27.36 27.19 27.22 27.19 27.17